Time,TemperatureF,DewpointF,PressureIn,WindDirection,WindDirectionDegrees,WindSpeedMPH,WindSpeedGustMPH,Humidity,HourlyPrecipIn,Conditions,Clouds,dailyrainin,SolarRadiationWatts/m^2,SoftwareType,DateUTC
2013-09-17 00:01:00,61.8,60.1,28.72,NE,45,5.0,-999.0,94,0.00,,,0.11,0,Wunderground v.1.15,2013-09-16 14:01:00,
2013-09-17 00:05:00,61.7,60.0,28.72,ENE,59,5.0,10.0,94,0.00,,,0.00,0,Wunderground v.1.15,2013-09-16 14:05:00,
2013-09-17 00:06:00,61.8,60.1,28.72,NE,45,5.0,-999.0,94,0.00,,,0.11,0,Wunderground v.1.15,2013-09-16 14:06:00,
2013-09-17 00:10:00,61.7,60.0,28.72,NE,46,5.0,6.0,94,0.00,,,0.00,0,Wunderground v.1.15,2013-09-16 14:10:00,
2013-09-17 00:11:00,61.8,60.1,28.72,NE,45,5.0,-999.0,94,0.00,,,0.11,0,Wunderground v.1.15,2013-09-16 14:11:00,
2013-09-17 00:15:00,61.7,60.0,28.72,East,94,5.0,6.0,94,0.00,,,0.00,0,Wunderground v.1.15,2013-09-16 14:15:00,
2013-09-17 00:16:00,61.8,60.1,28.72,NE,45,5.0,-999.0,94,0.00,,,0.11,0,Wunderground v.1.15,2013-09-16 14:16:00,
2013-09-17 00:20:00,61.8,60.1,28.72,ENE,67,6.0,6.0,94,0.00,,,0.00,0,Wunderground v.1.15,2013-09-16 14:20:00,
2013-09-17 00:21:00,61.8,60.1,28.72,NE,45,5.0,-999.0,94,0.00,,,0.11,0,Wunderground v.1.15,2013-09-16 14:21:00,
2013-09-17 00:26:00,61.8,60.1,28.72,NE,45,5.0,-999.0,94,0.00,,,0.11,0,Wunderground v.1.15,2013-09-16 14:26:00,
2013-09-17 00:30:00,61.8,60.1,28.72,NNE,33,5.0,5.0,94,0.00,,,0.00,0,Wunderground v.1.15,2013-09-16 14:30:00,
2013-09-17 00:31:00,61.8,60.1,28.72,NE,45,5.0,-999.0,94,0.00,,,0.11,0,Wunderground v.1.15,2013-09-16 14:31:00,
2013-09-17 00:36:00,61.8,60.1,28.72,NE,45,5.0,-999.0,94,0.00,,,0.11,0,Wunderground v.1.15,2013-09-16 14:36:00,
2013-09-17 00:40:00,61.9,60.2,28.72,ESE,115,5.0,7.0,94,0.00,,,0.00,0,Wunderground v.1.15,2013-09-16 14:40:00,
2013-09-17 00:41:00,61.8,60.1,28.72,NE,45,5.0,-999.0,94,0.00,,,0.11,0,Wunderground v.1.15,2013-09-16 14:41:00,
2013-09-17 00:45:00,61.8,60.1,28.73,NNE,15,5.0,7.0,94,0.00,,,0.00,0,Wunderground v.1.15,2013-09-16 14:45:00,
2013-09-17 00:46:00,61.8,60.1,28.71,North,0,4.0,-999.0,94,0.02,,,0.11,0,Wunderground v.1.15,2013-09-16 14:46:00,
2013-09-17 00:51:00,61.8,60.1,28.71,North,0,4.0,-999.0,94,0.02,,,0.11,0,Wunderground v.1.15,2013-09-16 14:51:00,
2013-09-17 00:56:00,61.8,60.1,28.71,North,0,4.0,-999.0,94,0.02,,,0.11,0,Wunderground v.1.15,2013-09-16 14:56:00,
2013-09-17 01:01:00,61.8,60.1,28.71,North,0,4.0,-999.0,94,0.02,,,0.11,0,Wunderground v.1.15,2013-09-16 15:01:00,
2013-09-17 01:06:00,61.8,60.1,28.71,North,0,4.0,-999.0,94,0.02,,,0.11,0,Wunderground v.1.15,2013-09-16 15:06:00,
2013-09-17 01:11:00,61.8,60.1,28.71,North,0,4.0,-999.0,94,0.02,,,0.11,0,Wunderground v.1.15,2013-09-16 15:11:00,
2013-09-17 01:16:00,61.0,59.3,28.70,North,0,3.0,-999.0,94,0.05,,,0.11,0,Wunderground v.1.15,2013-09-16 15:16:00,
2013-09-17 01:21:00,61.0,59.3,28.70,North,0,3.0,-999.0,94,0.05,,,0.11,0,Wunderground v.1.15,2013-09-16 15:21:00,
2013-09-17 01:26:00,61.0,59.3,28.70,North,0,3.0,-999.0,94,0.05,,,0.11,0,Wunderground v.1.15,2013-09-16 15:26:00,
2013-09-17 01:31:00,61.0,59.3,28.70,North,0,3.0,-999.0,94,0.05,,,0.11,0,Wunderground v.1.15,2013-09-16 15:31:00,
2013-09-17 01:36:00,61.0,59.3,28.70,North,0,3.0,-999.0,94,0.05,,,0.11,0,Wunderground v.1.15,2013-09-16 15:36:00,
2013-09-17 01:41:00,61.0,59.3,28.70,North,0,3.0,-999.0,94,0.05,,,0.11,0,Wunderground v.1.15,2013-09-16 15:41:00,
2013-09-17 01:46:00,60.1,58.7,28.69,North,0,4.0,-999.0,95,0.05,,,0.11,0,Wunderground v.1.15,2013-09-16 15:46:00,
2013-09-17 01:51:00,60.1,58.7,28.69,North,0,4.0,-999.0,95,0.05,,,0.11,0,Wunderground v.1.15,2013-09-16 15:51:00,
2013-09-17 01:56:00,60.1,58.7,28.69,North,0,4.0,-999.0,95,0.05,,,0.11,0,Wunderground v.1.15,2013-09-16 15:56:00,
2013-09-17 02:01:00,60.1,58.7,28.69,North,0,4.0,-999.0,95,0.05,,,0.11,0,Wunderground v.1.15,2013-09-16 16:01:00,
2013-09-17 02:06:00,60.1,58.7,28.69,North,0,4.0,-999.0,95,0.05,,,0.11,0,Wunderground v.1.15,2013-09-16 16:06:00,
2013-09-17 02:11:00,60.1,58.7,28.69,North,0,4.0,-999.0,95,0.05,,,0.11,0,Wunderground v.1.15,2013-09-16 16:11:00,
2013-09-17 02:16:00,59.4,58.0,28.67,NNW,338,4.0,-999.0,95,0.03,,,0.11,0,Wunderground v.1.15,2013-09-16 16:16:00,
2013-09-17 02:21:00,59.4,58.0,28.67,NNW,338,4.0,-999.0,95,0.03,,,0.11,0,Wunderground v.1.15,2013-09-16 16:21:00,
2013-09-17 02:26:00,59.4,58.0,28.67,NNW,338,4.0,-999.0,95,0.03,,,0.11,0,Wunderground v.1.15,2013-09-16 16:26:00,
2013-09-17 02:31:00,59.4,58.0,28.67,NNW,338,4.0,-999.0,95,0.03,,,0.11,0,Wunderground v.1.15,2013-09-16 16:31:00,
2013-09-17 02:36:00,59.4,58.0,28.67,NNW,338,4.0,-999.0,95,0.03,,,0.11,0,Wunderground v.1.15,2013-09-16 16:36:00,
2013-09-17 02:41:00,59.4,58.0,28.67,NNW,338,4.0,-999.0,95,0.03,,,0.11,0,Wunderground v.1.15,2013-09-16 16:41:00,
2013-09-17 02:46:00,58.9,57.5,28.67,NNW,338,2.0,-999.0,95,0.01,,,0.11,0,Wunderground v.1.15,2013-09-16 16:46:00,
2013-09-17 02:51:00,58.9,57.5,28.67,NNW,338,2.0,-999.0,95,0.01,,,0.11,0,Wunderground v.1.15,2013-09-16 16:51:00,
2013-09-17 02:56:00,58.9,57.5,28.67,NNW,338,2.0,-999.0,95,0.01,,,0.11,0,Wunderground v.1.15,2013-09-16 16:56:00,
2013-09-17 03:01:00,58.9,57.5,28.67,NNW,338,2.0,-999.0,95,0.01,,,0.11,0,Wunderground v.1.15,2013-09-16 17:01:00,
2013-09-17 03:06:00,58.9,57.5,28.67,NNW,338,2.0,-999.0,95,0.01,,,0.11,0,Wunderground v.1.15,2013-09-16 17:06:00,
2013-09-17 03:11:00,58.9,57.5,28.67,NNW,338,2.0,-999.0,95,0.01,,,0.11,0,Wunderground v.1.15,2013-09-16 17:11:00,
2013-09-17 03:16:00,58.6,57.2,28.67,NNW,338,5.0,-999.0,95,0.00,,,0.11,0,Wunderground v.1.15,2013-09-16 17:16:00,
2013-09-17 03:21:00,58.6,57.2,28.67,NNW,338,5.0,-999.0,95,0.00,,,0.11,0,Wunderground v.1.15,2013-09-16 17:21:00,
2013-09-17 03:26:00,58.6,57.2,28.67,NNW,338,5.0,-999.0,95,0.00,,,0.11,0,Wunderground v.1.15,2013-09-16 17:26:00,
2013-09-17 03:31:00,58.6,57.2,28.67,NNW,338,5.0,-999.0,95,0.00,,,0.11,0,Wunderground v.1.15,2013-09-16 17:31:00,
2013-09-17 03:36:00,58.6,57.2,28.67,NNW,338,5.0,-999.0,95,0.00,,,0.11,0,Wunderground v.1.15,2013-09-16 17:36:00,
2013-09-17 03:41:00,58.6,57.2,28.67,NNW,338,5.0,-999.0,95,0.00,,,0.11,0,Wunderground v.1.15,2013-09-16 17:41:00,
2013-09-17 03:46:00,57.6,55.9,28.66,NNW,338,4.0,-999.0,94,0.00,,,0.11,0,Wunderground v.1.15,2013-09-16 17:46:00,
2013-09-17 03:51:00,57.6,55.9,28.66,NNW,338,4.0,-999.0,94,0.00,,,0.11,0,Wunderground v.1.15,2013-09-16 17:51:00,
2013-09-17 03:56:00,57.6,55.9,28.66,NNW,338,4.0,-999.0,94,0.00,,,0.11,0,Wunderground v.1.15,2013-09-16 17:56:00,
2013-09-17 04:01:00,57.6,55.9,28.66,NNW,338,4.0,-999.0,94,0.00,,,0.11,0,Wunderground v.1.15,2013-09-16 18:01:00,
2013-09-17 04:06:00,57.6,55.9,28.66,NNW,338,4.0,-999.0,94,0.00,,,0.11,0,Wunderground v.1.15,2013-09-16 18:06:00,
2013-09-17 04:11:00,57.6,55.9,28.66,NNW,338,4.0,-999.0,94,0.00,,,0.11,0,Wunderground v.1.15,2013-09-16 18:11:00,
2013-09-17 04:16:00,57.1,55.4,28.67,NW,315,4.0,-999.0,94,0.00,,,0.11,0,Wunderground v.1.15,2013-09-16 18:16:00,
2013-09-17 04:21:00,57.1,55.4,28.67,NW,315,4.0,-999.0,94,0.00,,,0.11,0,Wunderground v.1.15,2013-09-16 18:21:00,
2013-09-17 04:26:00,57.1,55.4,28.67,NW,315,4.0,-999.0,94,0.00,,,0.11,0,Wunderground v.1.15,2013-09-16 18:26:00,
2013-09-17 04:31:00,57.1,55.4,28.67,NW,315,4.0,-999.0,94,0.00,,,0.11,0,Wunderground v.1.15,2013-09-16 18:31:00,
2013-09-17 04:36:00,57.1,55.4,28.67,NW,315,4.0,-999.0,94,0.00,,,0.11,0,Wunderground v.1.15,2013-09-16 18:36:00,
2013-09-17 04:41:00,57.1,55.4,28.67,NW,315,4.0,-999.0,94,0.00,,,0.11,0,Wunderground v.1.15,2013-09-16 18:41:00,
2013-09-17 04:46:00,56.9,54.9,28.68,NW,315,5.0,-999.0,93,0.00,,,0.11,0,Wunderground v.1.15,2013-09-16 18:46:00,
2013-09-17 04:51:00,56.9,54.9,28.68,NW,315,5.0,-999.0,93,0.00,,,0.11,0,Wunderground v.1.15,2013-09-16 18:51:00,
2013-09-17 04:56:00,56.9,54.9,28.68,NW,315,5.0,-999.0,93,0.00,,,0.11,0,Wunderground v.1.15,2013-09-16 18:56:00,
2013-09-17 05:01:00,56.9,54.9,28.68,NW,315,5.0,-999.0,93,0.00,,,0.11,0,Wunderground v.1.15,2013-09-16 19:01:00,
2013-09-17 05:06:00,56.9,54.9,28.68,NW,315,5.0,-999.0,93,0.00,,,0.11,0,Wunderground v.1.15,2013-09-16 19:06:00,
2013-09-17 05:11:00,56.9,54.9,28.68,NW,315,5.0,-999.0,93,0.00,,,0.11,0,Wunderground v.1.15,2013-09-16 19:11:00,
2013-09-17 05:16:00,56.8,54.5,28.69,NW,315,4.0,-999.0,92,0.00,,,0.11,0,Wunderground v.1.15,2013-09-16 19:16:00,
2013-09-17 05:21:00,56.8,54.5,28.69,NW,315,4.0,-999.0,92,0.00,,,0.11,0,Wunderground v.1.15,2013-09-16 19:21:00,
2013-09-17 05:26:00,56.8,54.5,28.69,NW,315,4.0,-999.0,92,0.00,,,0.11,0,Wunderground v.1.15,2013-09-16 19:26:00,
2013-09-17 05:31:00,56.8,54.5,28.69,NW,315,4.0,-999.0,92,0.00,,,0.11,0,Wunderground v.1.15,2013-09-16 19:31:00,
2013-09-17 05:36:00,56.8,54.5,28.69,NW,315,4.0,-999.0,92,0.00,,,0.11,0,Wunderground v.1.15,2013-09-16 19:36:00,
2013-09-17 05:41:00,56.8,54.5,28.69,NW,315,4.0,-999.0,92,0.00,,,0.11,0,Wunderground v.1.15,2013-09-16 19:41:00,
2013-09-17 05:46:00,56.9,54.6,28.70,NW,315,4.0,-999.0,92,0.00,,,0.11,2,Wunderground v.1.15,2013-09-16 19:46:00,
2013-09-17 05:51:00,56.9,54.6,28.70,NW,315,4.0,-999.0,92,0.00,,,0.11,2,Wunderground v.1.15,2013-09-16 19:51:00,
2013-09-17 05:56:00,56.9,54.6,28.70,NW,315,4.0,-999.0,92,0.00,,,0.11,2,Wunderground v.1.15,2013-09-16 19:56:00,
2013-09-17 06:01:00,56.9,54.6,28.70,NW,315,4.0,-999.0,92,0.00,,,0.11,2,Wunderground v.1.15,2013-09-16 20:01:00,
2013-09-17 06:06:00,56.9,54.6,28.70,NW,315,4.0,-999.0,92,0.00,,,0.11,2,Wunderground v.1.15,2013-09-16 20:06:00,
2013-09-17 06:11:00,56.9,54.6,28.70,NW,315,4.0,-999.0,92,0.00,,,0.11,2,Wunderground v.1.15,2013-09-16 20:11:00,
2013-09-17 06:16:00,57.1,54.8,28.72,NW,315,5.0,-999.0,92,0.00,,,0.11,31,Wunderground v.1.15,2013-09-16 20:16:00,
2013-09-17 06:21:00,57.1,54.8,28.72,NW,315,5.0,-999.0,92,0.00,,,0.11,31,Wunderground v.1.15,2013-09-16 20:21:00,
2013-09-17 06:26:00,57.1,54.8,28.72,NW,315,5.0,-999.0,92,0.00,,,0.11,31,Wunderground v.1.15,2013-09-16 20:26:00,
2013-09-17 06:31:00,57.1,54.8,28.72,NW,315,5.0,-999.0,92,0.00,,,0.11,31,Wunderground v.1.15,2013-09-16 20:31:00,
2013-09-17 06:36:00,57.1,54.8,28.72,NW,315,5.0,-999.0,92,0.00,,,0.11,31,Wunderground v.1.15,2013-09-16 20:36:00,
2013-09-17 06:41:00,57.1,54.8,28.72,NW,315,5.0,-999.0,92,0.00,,,0.11,31,Wunderground v.1.15,2013-09-16 20:41:00,
2013-09-17 06:46:00,58.0,55.1,28.73,NW,315,4.0,-999.0,90,0.00,,,0.11,67,Wunderground v.1.15,2013-09-16 20:46:00,
2013-09-17 06:51:00,58.0,55.1,28.73,NW,315,4.0,-999.0,90,0.00,,,0.11,67,Wunderground v.1.15,2013-09-16 20:51:00,
2013-09-17 06:56:00,58.0,55.1,28.73,NW,315,4.0,-999.0,90,0.00,,,0.11,67,Wunderground v.1.15,2013-09-16 20:56:00,
2013-09-17 07:01:00,58.0,55.1,28.73,NW,315,4.0,-999.0,90,0.00,,,0.11,67,Wunderground v.1.15,2013-09-16 21:01:00,
2013-09-17 07:06:00,58.0,55.1,28.73,NW,315,4.0,-999.0,90,0.00,,,0.11,67,Wunderground v.1.15,2013-09-16 21:06:00,
2013-09-17 07:11:00,58.0,55.1,28.73,NW,315,4.0,-999.0,90,0.00,,,0.11,67,Wunderground v.1.15,2013-09-16 21:11:00,
2013-09-17 07:16:00,58.9,55.4,28.74,NW,315,4.0,-999.0,88,0.00,,,0.11,100,Wunderground v.1.15,2013-09-16 21:16:00,
2013-09-17 07:21:00,58.9,55.4,28.74,NW,315,4.0,-999.0,88,0.00,,,0.11,100,Wunderground v.1.15,2013-09-16 21:21:00,
2013-09-17 07:26:00,58.9,55.4,28.74,NW,315,4.0,-999.0,88,0.00,,,0.11,100,Wunderground v.1.15,2013-09-16 21:26:00,
2013-09-17 07:31:00,58.9,55.4,28.74,NW,315,4.0,-999.0,88,0.00,,,0.11,100,Wunderground v.1.15,2013-09-16 21:31:00,
2013-09-17 07:36:00,58.9,55.4,28.74,NW,315,4.0,-999.0,88,0.00,,,0.11,100,Wunderground v.1.15,2013-09-16 21:36:00,
2013-09-17 07:41:00,58.9,55.4,28.74,NW,315,4.0,-999.0,88,0.00,,,0.11,100,Wunderground v.1.15,2013-09-16 21:41:00,
2013-09-17 07:46:00,60.0,55.5,28.74,NNW,338,4.0,-999.0,85,0.00,,,0.11,185,Wunderground v.1.15,2013-09-16 21:46:00,
2013-09-17 07:50:00,60.1,55.9,28.74,NNW,344,3.0,3.0,86,0.00,,,0.08,174,Wunderground v.1.15,2013-09-16 21:50:00,
2013-09-17 07:51:00,60.0,55.5,28.74,NNW,338,4.0,-999.0,85,0.00,,,0.11,185,Wunderground v.1.15,2013-09-16 21:51:00,
2013-09-17 07:55:00,60.3,56.1,28.74,NW,315,3.0,4.0,86,0.00,,,0.08,216,Wunderground v.1.15,2013-09-16 21:55:00,
2013-09-17 07:56:00,60.0,55.5,28.74,NNW,338,4.0,-999.0,85,0.00,,,0.11,185,Wunderground v.1.15,2013-09-16 21:56:00,
2013-09-17 08:00:00,60.6,56.4,28.74,NW,321,5.0,5.0,86,0.00,,,0.08,288,Wunderground v.1.15,2013-09-16 22:00:00,
2013-09-17 08:01:00,60.0,55.5,28.74,NNW,338,4.0,-999.0,85,0.00,,,0.11,185,Wunderground v.1.15,2013-09-16 22:01:00,
2013-09-17 08:06:00,60.0,55.5,28.74,NNW,338,4.0,-999.0,85,0.00,,,0.11,185,Wunderground v.1.15,2013-09-16 22:06:00,
2013-09-17 08:10:00,61.1,56.2,28.74,WNW,286,4.0,4.0,84,0.00,,,0.08,179,Wunderground v.1.15,2013-09-16 22:10:00,
2013-09-17 08:11:00,60.0,55.5,28.74,NNW,338,4.0,-999.0,85,0.00,,,0.11,185,Wunderground v.1.15,2013-09-16 22:11:00,
2013-09-17 08:16:00,61.1,56.2,28.74,NW,315,3.0,-999.0,84,0.00,,,0.11,184,Wunderground v.1.15,2013-09-16 22:16:00,
2013-09-17 08:20:00,61.1,56.2,28.74,North,360,4.0,4.0,84,0.00,,,0.08,162,Wunderground v.1.15,2013-09-16 22:20:00,
2013-09-17 08:21:00,61.1,56.2,28.74,NW,315,3.0,-999.0,84,0.00,,,0.11,184,Wunderground v.1.15,2013-09-16 22:21:00,
2013-09-17 08:25:00,61.1,56.2,28.74,NNW,329,3.0,4.0,84,0.00,,,0.08,162,Wunderground v.1.15,2013-09-16 22:25:00,
2013-09-17 08:26:00,61.1,56.2,28.74,NW,315,3.0,-999.0,84,0.00,,,0.11,184,Wunderground v.1.15,2013-09-16 22:26:00,
2013-09-17 08:30:00,61.2,56.3,28.74,NW,322,3.0,3.0,84,0.00,,,0.08,193,Wunderground v.1.15,2013-09-16 22:30:00,
2013-09-17 08:31:00,61.1,56.2,28.74,NW,315,3.0,-999.0,84,0.00,,,0.11,184,Wunderground v.1.15,2013-09-16 22:31:00,
2013-09-17 08:36:00,61.1,56.2,28.74,NW,315,3.0,-999.0,84,0.00,,,0.11,184,Wunderground v.1.15,2013-09-16 22:36:00,
2013-09-17 08:40:00,61.8,56.9,28.74,NW,321,2.0,4.0,84,0.00,,,0.08,306,Wunderground v.1.15,2013-09-16 22:40:00,
2013-09-17 08:41:00,61.1,56.2,28.74,NW,315,3.0,-999.0,84,0.00,,,0.11,184,Wunderground v.1.15,2013-09-16 22:41:00,
2013-09-17 08:46:00,62.4,56.5,28.74,NW,315,3.0,-999.0,81,0.00,,,0.11,262,Wunderground v.1.15,2013-09-16 22:46:00,
2013-09-17 08:50:00,62.7,57.1,28.74,North,360,3.0,3.0,82,0.00,,,0.08,211,Wunderground v.1.15,2013-09-16 22:50:00,
2013-09-17 08:51:00,62.4,56.5,28.74,NW,315,3.0,-999.0,81,0.00,,,0.11,262,Wunderground v.1.15,2013-09-16 22:51:00,
2013-09-17 08:55:00,62.8,57.2,28.74,NNW,348,3.0,3.0,82,0.00,,,0.08,243,Wunderground v.1.15,2013-09-16 22:55:00,
2013-09-17 08:56:00,62.4,56.5,28.74,NW,315,3.0,-999.0,81,0.00,,,0.11,262,Wunderground v.1.15,2013-09-16 22:56:00,
2013-09-17 09:00:00,63.3,57.7,28.74,NNW,342,3.0,4.0,82,0.00,,,0.08,399,Wunderground v.1.15,2013-09-16 23:00:00,
2013-09-17 09:01:00,62.4,56.5,28.74,NW,315,3.0,-999.0,81,0.00,,,0.11,262,Wunderground v.1.15,2013-09-16 23:01:00,
2013-09-17 09:05:00,64.0,57.7,28.74,NW,314,3.0,4.0,80,0.00,,,0.08,394,Wunderground v.1.15,2013-09-16 23:05:00,
2013-09-17 09:06:00,62.4,56.5,28.74,NW,315,3.0,-999.0,81,0.00,,,0.11,262,Wunderground v.1.15,2013-09-16 23:06:00,
2013-09-17 09:10:00,65.1,58.4,28.74,North,355,3.0,6.0,79,0.00,,,0.08,385,Wunderground v.1.15,2013-09-16 23:10:00,
2013-09-17 09:11:00,62.4,56.5,28.74,NW,315,3.0,-999.0,81,0.00,,,0.11,262,Wunderground v.1.15,2013-09-16 23:11:00,
2013-09-17 09:16:00,66.6,56.1,28.73,NW,315,3.0,-999.0,69,0.01,,,0.11,591,Wunderground v.1.15,2013-09-16 23:16:00,
2013-09-17 09:20:00,67.6,58.6,28.74,North,355,3.0,5.0,73,0.00,,,0.08,687,Wunderground v.1.15,2013-09-16 23:20:00,
2013-09-17 09:21:00,66.6,56.1,28.73,NW,315,3.0,-999.0,69,0.01,,,0.11,591,Wunderground v.1.15,2013-09-16 23:21:00,
2013-09-17 09:25:00,68.7,58.5,28.74,NNW,335,3.0,8.0,70,0.00,,,0.09,715,Wunderground v.1.15,2013-09-16 23:25:00,
2013-09-17 09:26:00,66.6,56.1,28.73,NW,315,3.0,-999.0,69,0.01,,,0.11,591,Wunderground v.1.15,2013-09-16 23:26:00,
2013-09-17 09:30:00,68.9,58.3,28.74,NNE,22,4.0,5.0,69,0.00,,,0.09,745,Wunderground v.1.15,2013-09-16 23:30:00,
2013-09-17 09:31:00,66.6,56.1,28.73,NW,315,3.0,-999.0,69,0.01,,,0.11,591,Wunderground v.1.15,2013-09-16 23:31:00,
2013-09-17 09:36:00,66.6,56.1,28.73,NW,315,3.0,-999.0,69,0.01,,,0.11,591,Wunderground v.1.15,2013-09-16 23:36:00,
2013-09-17 09:40:00,69.3,58.3,28.74,NNE,26,4.0,12.0,68,0.00,,,0.09,645,Wunderground v.1.15,2013-09-16 23:40:00,
2013-09-17 09:41:00,66.6,56.1,28.73,NW,315,3.0,-999.0,69,0.01,,,0.11,591,Wunderground v.1.15,2013-09-16 23:41:00,
2013-09-17 09:46:00,69.7,57.8,28.74,NW,315,5.0,-999.0,66,0.01,,,0.11,693,Wunderground v.1.15,2013-09-16 23:46:00,
2013-09-17 09:50:00,69.8,58.3,28.74,NNE,17,6.0,6.0,67,0.00,,,0.09,703,Wunderground v.1.15,2013-09-16 23:50:00,
2013-09-17 09:51:00,69.7,57.8,28.74,NW,315,5.0,-999.0,66,0.01,,,0.11,693,Wunderground v.1.15,2013-09-16 23:51:00,
2013-09-17 09:55:00,70.4,58.1,28.74,WNW,294,5.0,6.0,65,0.00,,,0.09,772,Wunderground v.1.15,2013-09-16 23:55:00,
2013-09-17 09:56:00,69.7,57.8,28.74,NW,315,5.0,-999.0,66,0.01,,,0.11,693,Wunderground v.1.15,2013-09-16 23:56:00,
2013-09-17 10:00:00,70.2,58.7,28.73,NW,316,4.0,4.0,67,0.00,,,0.09,926,Wunderground v.1.15,2013-09-17 00:00:00,
2013-09-17 10:01:00,69.7,57.8,28.74,NW,315,5.0,-999.0,66,0.01,,,0.11,693,Wunderground v.1.15,2013-09-17 00:01:00,
2013-09-17 10:05:00,69.7,57.8,28.74,West,276,4.0,4.0,66,0.00,,,0.09,253,Wunderground v.1.15,2013-09-17 00:05:00,
2013-09-17 10:06:00,69.7,57.8,28.74,NW,315,5.0,-999.0,66,0.01,,,0.11,693,Wunderground v.1.15,2013-09-17 00:06:00,
2013-09-17 10:11:00,69.7,57.8,28.74,NW,315,5.0,-999.0,66,0.01,,,0.11,693,Wunderground v.1.15,2013-09-17 00:11:00,
2013-09-17 10:15:00,70.2,57.9,28.73,North,350,5.0,5.0,65,0.00,,,0.09,234,Wunderground v.1.15,2013-09-17 00:15:00,
2013-09-17 10:16:00,69.6,56.4,28.73,NW,315,7.0,-999.0,63,0.00,,,0.11,422,Wunderground v.1.15,2013-09-17 00:16:00,
2013-09-17 10:20:00,68.9,56.2,28.73,NW,305,7.0,10.0,64,0.00,,,0.09,311,Wunderground v.1.15,2013-09-17 00:20:00,
2013-09-17 10:21:00,69.6,56.4,28.73,NW,315,7.0,-999.0,63,0.00,,,0.11,422,Wunderground v.1.15,2013-09-17 00:21:00,
2013-09-17 10:25:00,68.6,56.4,28.73,NW,307,9.0,10.0,65,0.00,,,0.09,323,Wunderground v.1.15,2013-09-17 00:25:00,
2013-09-17 10:26:00,69.6,56.4,28.73,NW,315,7.0,-999.0,63,0.00,,,0.11,422,Wunderground v.1.15,2013-09-17 00:26:00,
2013-09-17 10:30:00,70.3,57.5,28.73,West,281,8.0,10.0,64,0.00,,,0.09,977,Wunderground v.1.15,2013-09-17 00:30:00,
2013-09-17 10:31:00,69.6,56.4,28.73,NW,315,7.0,-999.0,63,0.00,,,0.11,422,Wunderground v.1.15,2013-09-17 00:31:00,
2013-09-17 10:36:00,69.6,56.4,28.73,NW,315,7.0,-999.0,63,0.00,,,0.11,422,Wunderground v.1.15,2013-09-17 00:36:00,
2013-09-17 10:40:00,70.0,56.8,28.73,WNW,297,7.0,7.0,63,0.00,,,0.09,297,Wunderground v.1.15,2013-09-17 00:40:00,
2013-09-17 10:41:00,69.6,56.4,28.73,NW,315,7.0,-999.0,63,0.00,,,0.11,422,Wunderground v.1.15,2013-09-17 00:41:00,
2013-09-17 10:46:00,70.2,56.1,28.72,NW,315,7.0,-999.0,61,0.00,,,0.11,431,Wunderground v.1.15,2013-09-17 00:46:00,
2013-09-17 10:50:00,69.4,56.3,28.73,NW,306,7.0,7.0,63,0.00,,,0.09,269,Wunderground v.1.15,2013-09-17 00:50:00,
2013-09-17 10:51:00,70.2,56.1,28.72,NW,315,7.0,-999.0,61,0.00,,,0.11,431,Wunderground v.1.15,2013-09-17 00:51:00,
2013-09-17 10:55:00,69.4,56.7,28.72,West,277,8.0,11.0,64,0.00,,,0.09,884,Wunderground v.1.15,2013-09-17 00:55:00,
2013-09-17 10:56:00,70.2,56.1,28.72,NW,315,7.0,-999.0,61,0.00,,,0.11,431,Wunderground v.1.15,2013-09-17 00:56:00,
2013-09-17 11:00:00,71.1,57.4,28.72,North,351,7.0,8.0,62,0.00,,,0.09,828,Wunderground v.1.15,2013-09-17 01:00:00,
2013-09-17 11:01:00,70.2,56.1,28.72,NW,315,7.0,-999.0,61,0.00,,,0.11,431,Wunderground v.1.15,2013-09-17 01:01:00,
2013-09-17 11:06:00,70.2,56.1,28.72,NW,315,7.0,-999.0,61,0.00,,,0.11,431,Wunderground v.1.15,2013-09-17 01:06:00,
2013-09-17 11:10:00,71.4,56.3,28.72,WNW,301,8.0,10.0,59,0.00,,,0.09,851,Wunderground v.1.15,2013-09-17 01:10:00,
2013-09-17 11:11:00,70.2,56.1,28.72,NW,315,7.0,-999.0,61,0.00,,,0.11,431,Wunderground v.1.15,2013-09-17 01:11:00,
2013-09-17 11:16:00,71.7,55.2,28.71,NW,315,8.0,-999.0,56,0.00,,,0.11,853,Wunderground v.1.15,2013-09-17 01:16:00,
2013-09-17 11:20:00,71.8,56.2,28.71,WNW,284,7.0,11.0,58,0.00,,,0.09,923,Wunderground v.1.15,2013-09-17 01:20:00,
2013-09-17 11:21:00,71.7,55.2,28.71,NW,315,8.0,-999.0,56,0.00,,,0.11,853,Wunderground v.1.15,2013-09-17 01:21:00,
2013-09-17 11:25:00,71.4,55.9,28.71,WNW,302,9.0,11.0,58,0.00,,,0.09,1049,Wunderground v.1.15,2013-09-17 01:25:00,
2013-09-17 11:26:00,71.7,55.2,28.71,NW,315,8.0,-999.0,56,0.00,,,0.11,853,Wunderground v.1.15,2013-09-17 01:26:00,
2013-09-17 11:30:00,72.3,56.7,28.71,WNW,286,10.0,13.0,58,0.00,,,0.09,851,Wunderground v.1.15,2013-09-17 01:30:00,
2013-09-17 11:31:00,71.7,55.2,28.71,NW,315,8.0,-999.0,56,0.00,,,0.11,853,Wunderground v.1.15,2013-09-17 01:31:00,
2013-09-17 11:36:00,71.7,55.2,28.71,NW,315,8.0,-999.0,56,0.00,,,0.11,853,Wunderground v.1.15,2013-09-17 01:36:00,
2013-09-17 11:40:00,70.1,56.5,28.71,WNW,291,8.0,8.0,62,0.00,,,0.09,125,Wunderground v.1.15,2013-09-17 01:40:00,
2013-09-17 11:41:00,71.7,55.2,28.71,NW,315,8.0,-999.0,56,0.00,,,0.11,853,Wunderground v.1.15,2013-09-17 01:41:00,
2013-09-17 11:45:00,68.5,55.8,28.70,WNW,296,8.0,8.0,64,0.00,,,0.09,281,Wunderground v.1.15,2013-09-17 01:45:00,
2013-09-17 11:46:00,69.2,57.4,28.70,WNW,293,8.0,-999.0,66,0.00,,,0.11,429,Wunderground v.1.15,2013-09-17 01:46:00,
2013-09-17 11:51:00,69.2,57.4,28.70,WNW,293,8.0,-999.0,66,0.00,,,0.11,429,Wunderground v.1.15,2013-09-17 01:51:00,
2013-09-17 11:55:00,68.2,56.4,28.70,WNW,295,7.0,10.0,66,0.00,,,0.09,942,Wunderground v.1.15,2013-09-17 01:55:00,
2013-09-17 11:56:00,69.2,57.4,28.70,WNW,293,8.0,-999.0,66,0.00,,,0.11,429,Wunderground v.1.15,2013-09-17 01:56:00,
2013-09-17 12:00:00,68.9,56.6,28.70,NW,309,7.0,12.0,65,0.00,,,0.09,367,Wunderground v.1.15,2013-09-17 02:00:00,
2013-09-17 12:01:00,69.2,57.4,28.70,WNW,293,8.0,-999.0,66,0.00,,,0.11,429,Wunderground v.1.15,2013-09-17 02:01:00,
2013-09-17 12:05:00,68.0,56.6,28.70,WSW,254,8.0,12.0,67,0.00,,,0.09,445,Wunderground v.1.15,2013-09-17 02:05:00,
2013-09-17 12:06:00,69.2,57.4,28.70,WNW,293,8.0,-999.0,66,0.00,,,0.11,429,Wunderground v.1.15,2013-09-17 02:06:00,
2013-09-17 12:10:00,67.9,57.4,28.70,SW,214,6.0,6.0,69,0.00,,,0.09,223,Wunderground v.1.15,2013-09-17 02:10:00,
2013-09-17 12:11:00,69.2,57.4,28.70,WNW,293,8.0,-999.0,66,0.00,,,0.11,429,Wunderground v.1.15,2013-09-17 02:11:00,
2013-09-17 12:16:00,68.0,57.0,28.69,West,270,6.0,-999.0,68,0.00,,,0.11,559,Wunderground v.1.15,2013-09-17 02:16:00,
2013-09-17 12:20:00,67.4,56.9,28.70,West,272,6.0,6.0,69,0.00,,,0.09,295,Wunderground v.1.15,2013-09-17 02:20:00,
2013-09-17 12:21:00,68.0,57.0,28.69,West,270,6.0,-999.0,68,0.00,,,0.11,559,Wunderground v.1.15,2013-09-17 02:21:00,
2013-09-17 12:25:00,68.4,57.8,28.69,SW,233,6.0,6.0,69,0.00,,,0.09,1016,Wunderground v.1.15,2013-09-17 02:25:00,
2013-09-17 12:26:00,68.0,57.0,28.69,West,270,6.0,-999.0,68,0.00,,,0.11,559,Wunderground v.1.15,2013-09-17 02:26:00,
2013-09-17 12:30:00,69.0,57.6,28.69,WSW,258,7.0,11.0,67,0.00,,,0.09,302,Wunderground v.1.15,2013-09-17 02:30:00,
2013-09-17 12:31:00,68.0,57.0,28.69,West,270,6.0,-999.0,68,0.00,,,0.11,559,Wunderground v.1.15,2013-09-17 02:31:00,
2013-09-17 12:36:00,68.0,57.0,28.69,West,270,6.0,-999.0,68,0.00,,,0.11,559,Wunderground v.1.15,2013-09-17 02:36:00,
2013-09-17 12:40:00,67.0,57.7,28.69,WNW,295,6.0,11.0,72,0.00,,,0.09,120,Wunderground v.1.15,2013-09-17 02:40:00,
2013-09-17 12:41:00,68.0,57.0,28.69,West,270,6.0,-999.0,68,0.00,,,0.11,559,Wunderground v.1.15,2013-09-17 02:41:00,
2013-09-17 12:45:00,65.7,57.2,28.69,West,279,8.0,11.0,74,0.15,,,0.10,49,Wunderground v.1.15,2013-09-17 02:45:00,
2013-09-17 12:46:00,65.3,58.6,28.68,WNW,293,6.0,-999.0,79,0.02,,,0.11,176,Wunderground v.1.15,2013-09-17 02:46:00,
2013-09-17 12:50:00,64.5,57.8,28.69,NNW,329,7.0,7.0,79,0.18,,,0.11,109,Wunderground v.1.15,2013-09-17 02:50:00,
2013-09-17 12:51:00,65.3,58.6,28.68,WNW,293,6.0,-999.0,79,0.02,,,0.11,176,Wunderground v.1.15,2013-09-17 02:51:00,
2013-09-17 12:56:00,65.3,58.6,28.68,WNW,293,6.0,-999.0,79,0.02,,,0.11,176,Wunderground v.1.15,2013-09-17 02:56:00,
2013-09-17 13:00:00,62.7,56.1,28.68,WNW,290,5.0,5.0,79,0.05,,,0.11,279,Wunderground v.1.15,2013-09-17 03:00:00,
2013-09-17 13:01:00,65.3,58.6,28.68,WNW,293,6.0,-999.0,79,0.02,,,0.11,176,Wunderground v.1.15,2013-09-17 03:01:00,
2013-09-17 13:05:00,64.1,57.8,28.68,NW,306,6.0,9.0,80,0.00,,,0.11,826,Wunderground v.1.15,2013-09-17 03:05:00,
2013-09-17 13:06:00,65.3,58.6,28.68,WNW,293,6.0,-999.0,79,0.02,,,0.11,176,Wunderground v.1.15,2013-09-17 03:06:00,
2013-09-17 13:10:00,65.9,57.4,28.68,West,275,6.0,6.0,74,0.00,,,0.11,782,Wunderground v.1.15,2013-09-17 03:10:00,
2013-09-17 13:11:00,65.3,58.6,28.68,WNW,293,6.0,-999.0,79,0.02,,,0.11,176,Wunderground v.1.15,2013-09-17 03:11:00,
2013-09-17 13:15:00,67.9,57.8,28.68,NW,310,5.0,7.0,70,0.00,,,0.11,846,Wunderground v.1.15,2013-09-17 03:15:00,
2013-09-17 13:16:00,67.6,55.4,28.68,NW,315,5.0,-999.0,65,0.02,,,0.11,727,Wunderground v.1.15,2013-09-17 03:16:00,
2013-09-17 13:20:00,69.5,58.5,28.68,NW,314,4.0,9.0,68,0.00,,,0.11,816,Wunderground v.1.15,2013-09-17 03:20:00,
2013-09-17 13:21:00,67.6,55.4,28.68,NW,315,5.0,-999.0,65,0.02,,,0.11,727,Wunderground v.1.15,2013-09-17 03:21:00,
2013-09-17 13:26:00,67.6,55.4,28.68,NW,315,5.0,-999.0,65,0.02,,,0.11,727,Wunderground v.1.15,2013-09-17 03:26:00,
2013-09-17 13:30:00,69.4,57.1,28.68,NW,317,6.0,6.0,65,0.00,,,0.11,512,Wunderground v.1.15,2013-09-17 03:30:00,
2013-09-17 13:31:00,67.6,55.4,28.68,NW,315,5.0,-999.0,65,0.02,,,0.11,727,Wunderground v.1.15,2013-09-17 03:31:00,
2013-09-17 13:36:00,67.6,55.4,28.68,NW,315,5.0,-999.0,65,0.02,,,0.11,727,Wunderground v.1.15,2013-09-17 03:36:00,
2013-09-17 13:40:00,71.1,57.9,28.67,WNW,302,6.0,6.0,63,0.00,,,0.11,809,Wunderground v.1.15,2013-09-17 03:40:00,
2013-09-17 13:41:00,67.6,55.4,28.68,NW,315,5.0,-999.0,65,0.02,,,0.11,727,Wunderground v.1.15,2013-09-17 03:41:00,
2013-09-17 13:45:00,71.9,57.3,28.67,WNW,290,6.0,9.0,60,0.00,,,0.11,673,Wunderground v.1.15,2013-09-17 03:45:00,
2013-09-17 13:46:00,70.8,58.0,28.67,NW,315,7.0,-999.0,64,0.00,,,0.11,523,Wunderground v.1.15,2013-09-17 03:46:00,
2013-09-17 13:50:00,71.6,57.4,28.67,WNW,301,6.0,10.0,61,0.00,,,0.11,585,Wunderground v.1.15,2013-09-17 03:50:00,
2013-09-17 13:51:00,70.8,58.0,28.67,NW,315,7.0,-999.0,64,0.00,,,0.11,523,Wunderground v.1.15,2013-09-17 03:51:00,
2013-09-17 13:55:00,70.9,56.8,28.67,NNW,329,7.0,10.0,61,0.00,,,0.11,111,Wunderground v.1.15,2013-09-17 03:55:00,
2013-09-17 13:56:00,70.8,58.0,28.67,NW,315,7.0,-999.0,64,0.00,,,0.11,523,Wunderground v.1.15,2013-09-17 03:56:00,
2013-09-17 14:01:00,70.8,58.0,28.67,NW,315,7.0,-999.0,64,0.00,,,0.11,523,Wunderground v.1.15,2013-09-17 04:01:00,
2013-09-17 14:05:00,70.4,57.2,28.67,WNW,298,7.0,8.0,63,0.00,,,0.11,221,Wunderground v.1.15,2013-09-17 04:05:00,
2013-09-17 14:06:00,70.8,58.0,28.67,NW,315,7.0,-999.0,64,0.00,,,0.11,523,Wunderground v.1.15,2013-09-17 04:06:00,
2013-09-17 14:10:00,69.8,56.6,28.67,NW,315,7.0,8.0,63,0.00,,,0.11,146,Wunderground v.1.15,2013-09-17 04:10:00,
2013-09-17 14:11:00,70.8,58.0,28.67,NW,315,7.0,-999.0,64,0.00,,,0.11,523,Wunderground v.1.15,2013-09-17 04:11:00,
2013-09-17 14:15:00,69.1,57.7,28.67,NW,310,6.0,10.0,67,0.00,,,0.11,160,Wunderground v.1.15,2013-09-17 04:15:00,
2013-09-17 14:16:00,69.7,55.2,28.66,NW,315,7.0,-999.0,60,0.00,,,0.11,361,Wunderground v.1.15,2013-09-17 04:16:00,
2013-09-17 14:20:00,68.9,57.1,28.67,North,355,7.0,11.0,66,0.00,,,0.11,316,Wunderground v.1.15,2013-09-17 04:20:00,
2013-09-17 14:21:00,69.7,55.2,28.66,NW,315,7.0,-999.0,60,0.00,,,0.11,361,Wunderground v.1.15,2013-09-17 04:21:00,
2013-09-17 14:25:00,69.6,56.9,28.67,West,274,7.0,11.0,64,0.00,,,0.11,294,Wunderground v.1.15,2013-09-17 04:25:00,
2013-09-17 14:26:00,69.7,55.2,28.66,NW,315,7.0,-999.0,60,0.00,,,0.11,361,Wunderground v.1.15,2013-09-17 04:26:00,
2013-09-17 14:30:00,70.7,56.1,28.67,NW,316,8.0,8.0,60,0.00,,,0.11,673,Wunderground v.1.15,2013-09-17 04:30:00,
2013-09-17 14:31:00,69.7,55.2,28.66,NW,315,7.0,-999.0,60,0.00,,,0.11,361,Wunderground v.1.15,2013-09-17 04:31:00,
2013-09-17 14:36:00,69.7,55.2,28.66,NW,315,7.0,-999.0,60,0.00,,,0.11,361,Wunderground v.1.15,2013-09-17 04:36:00,
2013-09-17 14:40:00,71.2,52.7,28.66,WNW,290,9.0,11.0,52,0.00,,,0.11,622,Wunderground v.1.15,2013-09-17 04:40:00,
2013-09-17 14:41:00,69.7,55.2,28.66,NW,315,7.0,-999.0,60,0.00,,,0.11,361,Wunderground v.1.15,2013-09-17 04:41:00,
2013-09-17 14:45:00,70.0,52.1,28.66,NNW,331,10.0,11.0,53,0.00,,,0.11,223,Wunderground v.1.15,2013-09-17 04:45:00,
2013-09-17 14:46:00,70.6,52.6,28.67,NW,315,9.0,-999.0,53,0.00,,,0.11,412,Wunderground v.1.15,2013-09-17 04:46:00,
2013-09-17 14:50:00,69.4,52.5,28.67,NW,325,9.0,9.0,55,0.00,,,0.11,309,Wunderground v.1.15,2013-09-17 04:50:00,
2013-09-17 14:51:00,70.6,52.6,28.67,NW,315,9.0,-999.0,53,0.00,,,0.11,412,Wunderground v.1.15,2013-09-17 04:51:00,
2013-09-17 14:56:00,70.6,52.6,28.67,NW,315,9.0,-999.0,53,0.00,,,0.11,412,Wunderground v.1.15,2013-09-17 04:56:00,
2013-09-17 15:00:00,70.8,52.8,28.67,NW,322,7.0,7.0,53,0.00,,,0.11,302,Wunderground v.1.15,2013-09-17 05:00:00,
2013-09-17 15:01:00,70.6,52.6,28.67,NW,315,9.0,-999.0,53,0.00,,,0.11,412,Wunderground v.1.15,2013-09-17 05:01:00,
2013-09-17 15:05:00,69.6,52.7,28.67,NW,311,7.0,7.0,55,0.00,,,0.11,192,Wunderground v.1.15,2013-09-17 05:05:00,
2013-09-17 15:06:00,70.6,52.6,28.67,NW,315,9.0,-999.0,53,0.00,,,0.11,412,Wunderground v.1.15,2013-09-17 05:06:00,
2013-09-17 15:10:00,68.9,52.6,28.67,NW,306,5.0,5.0,56,0.00,,,0.11,121,Wunderground v.1.15,2013-09-17 05:10:00,
2013-09-17 15:11:00,70.6,52.6,28.67,NW,315,9.0,-999.0,53,0.00,,,0.11,412,Wunderground v.1.15,2013-09-17 05:11:00,
2013-09-17 15:15:00,68.3,52.5,28.67,NW,311,5.0,5.0,57,0.00,,,0.11,387,Wunderground v.1.15,2013-09-17 05:15:00,
2013-09-17 15:16:00,69.2,53.3,28.67,NW,315,5.0,-999.0,57,0.00,,,0.11,250,Wunderground v.1.15,2013-09-17 05:16:00,
2013-09-17 15:20:00,69.2,52.8,28.68,NNE,21,6.0,8.0,56,0.00,,,0.11,466,Wunderground v.1.15,2013-09-17 05:20:00,
2013-09-17 15:21:00,69.2,53.3,28.67,NW,315,5.0,-999.0,57,0.00,,,0.11,250,Wunderground v.1.15,2013-09-17 05:21:00,
2013-09-17 15:26:00,69.2,53.3,28.67,NW,315,5.0,-999.0,57,0.00,,,0.11,250,Wunderground v.1.15,2013-09-17 05:26:00,
2013-09-17 15:30:00,69.1,52.7,28.67,NNW,339,5.0,5.0,56,0.00,,,0.11,229,Wunderground v.1.15,2013-09-17 05:30:00,
2013-09-17 15:31:00,69.2,53.3,28.67,NW,315,5.0,-999.0,57,0.00,,,0.11,250,Wunderground v.1.15,2013-09-17 05:31:00,
2013-09-17 15:35:00,69.3,53.4,28.67,NNW,347,4.0,5.0,57,0.00,,,0.11,367,Wunderground v.1.15,2013-09-17 05:35:00,
2013-09-17 15:36:00,69.2,53.3,28.67,NW,315,5.0,-999.0,57,0.00,,,0.11,250,Wunderground v.1.15,2013-09-17 05:36:00,
2013-09-17 15:40:00,69.4,53.5,28.67,NNW,333,3.0,3.0,57,0.00,,,0.11,120,Wunderground v.1.15,2013-09-17 05:40:00,
2013-09-17 15:41:00,69.2,53.3,28.67,NW,315,5.0,-999.0,57,0.00,,,0.11,250,Wunderground v.1.15,2013-09-17 05:41:00,
2013-09-17 15:45:00,69.2,53.3,28.67,WNW,298,3.0,3.0,57,0.00,,,0.11,56,Wunderground v.1.15,2013-09-17 05:45:00,
2013-09-17 15:46:00,68.9,53.5,28.68,NW,315,4.0,-999.0,58,0.00,,,0.11,113,Wunderground v.1.15,2013-09-17 05:46:00,
2013-09-17 15:50:00,68.7,53.3,28.67,North,5,3.0,3.0,58,0.00,,,0.11,40,Wunderground v.1.15,2013-09-17 05:50:00,
2013-09-17 15:51:00,68.9,53.5,28.68,NW,315,4.0,-999.0,58,0.00,,,0.11,113,Wunderground v.1.15,2013-09-17 05:51:00,
2013-09-17 15:55:00,68.4,53.5,28.67,NNW,348,2.0,3.0,59,0.00,,,0.11,81,Wunderground v.1.15,2013-09-17 05:55:00,
2013-09-17 15:56:00,68.9,53.5,28.68,NW,315,4.0,-999.0,58,0.00,,,0.11,113,Wunderground v.1.15,2013-09-17 05:56:00,
2013-09-17 16:01:00,68.9,53.5,28.68,NW,315,4.0,-999.0,58,0.00,,,0.11,113,Wunderground v.1.15,2013-09-17 06:01:00,
2013-09-17 16:05:00,68.0,52.2,28.68,NNE,24,9.0,9.0,57,0.00,,,0.11,121,Wunderground v.1.15,2013-09-17 06:05:00,
2013-09-17 16:06:00,68.9,53.5,28.68,NW,315,4.0,-999.0,58,0.00,,,0.11,113,Wunderground v.1.15,2013-09-17 06:06:00,
2013-09-17 16:10:00,67.8,52.5,28.68,NW,311,9.0,9.0,58,0.00,,,0.11,153,Wunderground v.1.15,2013-09-17 06:10:00,
2013-09-17 16:11:00,68.9,53.5,28.68,NW,315,4.0,-999.0,58,0.00,,,0.11,113,Wunderground v.1.15,2013-09-17 06:11:00,
2013-09-17 16:15:00,68.2,52.4,28.67,West,279,8.0,9.0,57,0.00,,,0.11,186,Wunderground v.1.15,2013-09-17 06:15:00,
2013-09-17 16:16:00,68.2,53.3,28.67,NW,315,8.0,-999.0,59,0.00,,,0.11,218,Wunderground v.1.15,2013-09-17 06:16:00,
2013-09-17 16:20:00,68.6,52.3,28.67,WNW,298,8.0,8.0,56,0.00,,,0.11,227,Wunderground v.1.15,2013-09-17 06:20:00,
2013-09-17 16:21:00,68.2,53.3,28.67,NW,315,8.0,-999.0,59,0.00,,,0.11,218,Wunderground v.1.15,2013-09-17 06:21:00,
2013-09-17 16:25:00,68.3,52.5,28.67,WNW,302,9.0,9.0,57,0.00,,,0.11,294,Wunderground v.1.15,2013-09-17 06:25:00,
2013-09-17 16:26:00,68.2,53.3,28.67,NW,315,8.0,-999.0,59,0.00,,,0.11,218,Wunderground v.1.15,2013-09-17 06:26:00,
2013-09-17 16:31:00,68.2,53.3,28.67,NW,315,8.0,-999.0,59,0.00,,,0.11,218,Wunderground v.1.15,2013-09-17 06:31:00,
2013-09-17 16:35:00,68.2,53.3,28.67,NW,309,7.0,13.0,59,0.00,,,0.11,241,Wunderground v.1.15,2013-09-17 06:35:00,
2013-09-17 16:36:00,68.2,53.3,28.67,NW,315,8.0,-999.0,59,0.00,,,0.11,218,Wunderground v.1.15,2013-09-17 06:36:00,
2013-09-17 16:41:00,68.2,53.3,28.67,NW,315,8.0,-999.0,59,0.00,,,0.11,218,Wunderground v.1.15,2013-09-17 06:41:00,
2013-09-17 16:45:00,68.0,53.6,28.68,NNW,333,6.0,6.0,60,0.00,,,0.11,192,Wunderground v.1.15,2013-09-17 06:45:00,
2013-09-17 16:46:00,67.9,54.4,28.68,NW,315,6.0,-999.0,62,0.00,,,0.11,184,Wunderground v.1.15,2013-09-17 06:46:00,
2013-09-17 16:50:00,67.8,53.9,28.68,NW,325,7.0,7.0,61,0.00,,,0.11,174,Wunderground v.1.15,2013-09-17 06:50:00,
2013-09-17 16:51:00,67.9,54.4,28.68,NW,315,6.0,-999.0,62,0.00,,,0.11,184,Wunderground v.1.15,2013-09-17 06:51:00,
2013-09-17 16:55:00,67.7,53.8,28.68,West,267,6.0,7.0,61,0.00,,,0.11,155,Wunderground v.1.15,2013-09-17 06:55:00,
2013-09-17 16:56:00,67.9,54.4,28.68,NW,315,6.0,-999.0,62,0.00,,,0.11,184,Wunderground v.1.15,2013-09-17 06:56:00,
2013-09-17 17:00:00,67.4,53.9,28.68,NNW,337,6.0,8.0,62,0.00,,,0.11,125,Wunderground v.1.15,2013-09-17 07:00:00,
2013-09-17 17:01:00,67.9,54.4,28.68,NW,315,6.0,-999.0,62,0.00,,,0.11,184,Wunderground v.1.15,2013-09-17 07:01:00,
2013-09-17 17:05:00,67.3,53.8,28.68,WNW,293,6.0,8.0,62,0.00,,,0.11,102,Wunderground v.1.15,2013-09-17 07:05:00,
2013-09-17 17:06:00,67.9,54.4,28.68,NW,315,6.0,-999.0,62,0.00,,,0.11,184,Wunderground v.1.15,2013-09-17 07:06:00,
2013-09-17 17:11:00,67.9,54.4,28.68,NW,315,6.0,-999.0,62,0.00,,,0.11,184,Wunderground v.1.15,2013-09-17 07:11:00,
2013-09-17 17:15:00,67.4,54.4,28.69,North,11,4.0,5.0,63,0.00,,,0.11,63,Wunderground v.1.15,2013-09-17 07:15:00,
2013-09-17 17:16:00,67.2,54.2,28.69,NW,315,4.0,-999.0,63,0.00,,,0.11,56,Wunderground v.1.15,2013-09-17 07:16:00,
2013-09-17 17:20:00,67.3,54.3,28.69,WNW,298,3.0,3.0,63,0.00,,,0.11,44,Wunderground v.1.15,2013-09-17 07:20:00,
2013-09-17 17:21:00,67.2,54.2,28.69,NW,315,4.0,-999.0,63,0.00,,,0.11,56,Wunderground v.1.15,2013-09-17 07:21:00,
2013-09-17 17:25:00,67.2,54.2,28.69,NW,324,4.0,4.0,63,0.00,,,0.11,26,Wunderground v.1.15,2013-09-17 07:25:00,
2013-09-17 17:26:00,67.2,54.2,28.69,NW,315,4.0,-999.0,63,0.00,,,0.11,56,Wunderground v.1.15,2013-09-17 07:26:00,
2013-09-17 17:30:00,66.9,53.9,28.69,NW,320,4.0,4.0,63,0.00,,,0.11,16,Wunderground v.1.15,2013-09-17 07:30:00,
2013-09-17 17:31:00,67.2,54.2,28.69,NW,315,4.0,-999.0,63,0.00,,,0.11,56,Wunderground v.1.15,2013-09-17 07:31:00,
2013-09-17 17:36:00,67.2,54.2,28.69,NW,315,4.0,-999.0,63,0.00,,,0.11,56,Wunderground v.1.15,2013-09-17 07:36:00,
2013-09-17 17:40:00,66.3,53.8,28.69,NNW,336,2.0,5.0,64,0.00,,,0.11,7,Wunderground v.1.15,2013-09-17 07:40:00,
2013-09-17 17:41:00,67.2,54.2,28.69,NW,315,4.0,-999.0,63,0.00,,,0.11,56,Wunderground v.1.15,2013-09-17 07:41:00,
2013-09-17 17:46:00,65.8,54.1,28.70,NW,315,2.0,-999.0,66,0.00,,,0.11,4,Wunderground v.1.15,2013-09-17 07:46:00,
2013-09-17 17:50:00,65.5,53.4,28.69,North,360,2.0,2.0,65,0.00,,,0.11,0,Wunderground v.1.15,2013-09-17 07:50:00,
2013-09-17 17:51:00,65.8,54.1,28.70,NW,315,2.0,-999.0,66,0.00,,,0.11,4,Wunderground v.1.15,2013-09-17 07:51:00,
2013-09-17 17:55:00,65.2,53.1,28.69,NNW,329,2.0,2.0,65,0.00,,,0.11,0,Wunderground v.1.15,2013-09-17 07:55:00,
2013-09-17 17:56:00,65.8,54.1,28.70,NW,315,2.0,-999.0,66,0.00,,,0.11,4,Wunderground v.1.15,2013-09-17 07:56:00,
2013-09-17 18:00:00,65.0,53.4,28.70,NW,313,2.0,2.0,66,0.00,,,0.11,0,Wunderground v.1.15,2013-09-17 08:00:00,
2013-09-17 18:01:00,65.8,54.1,28.70,NW,315,2.0,-999.0,66,0.00,,,0.11,4,Wunderground v.1.15,2013-09-17 08:01:00,
2013-09-17 18:05:00,64.6,53.0,28.70,North,9,3.0,4.0,66,0.00,,,0.11,0,Wunderground v.1.15,2013-09-17 08:05:00,
2013-09-17 18:06:00,65.8,54.1,28.70,NW,315,2.0,-999.0,66,0.00,,,0.11,4,Wunderground v.1.15,2013-09-17 08:06:00,
2013-09-17 18:10:00,64.6,53.0,28.70,NW,305,3.0,3.0,66,0.00,,,0.11,0,Wunderground v.1.15,2013-09-17 08:10:00,
2013-09-17 18:11:00,65.8,54.1,28.70,NW,315,2.0,-999.0,66,0.00,,,0.11,4,Wunderground v.1.15,2013-09-17 08:11:00,
2013-09-17 18:15:00,64.4,52.8,28.70,NW,304,2.0,5.0,66,0.00,,,0.11,0,Wunderground v.1.15,2013-09-17 08:15:00,
2013-09-17 18:16:00,64.4,53.6,28.71,NW,315,3.0,-999.0,68,0.00,,,0.11,0,Wunderground v.1.15,2013-09-17 08:16:00,
2013-09-17 18:21:00,64.4,53.6,28.71,NW,315,3.0,-999.0,68,0.00,,,0.11,0,Wunderground v.1.15,2013-09-17 08:21:00,
2013-09-17 18:25:00,64.1,52.9,28.70,NW,319,3.0,3.0,67,0.00,,,0.11,0,Wunderground v.1.15,2013-09-17 08:25:00,
2013-09-17 18:26:00,64.4,53.6,28.71,NW,315,3.0,-999.0,68,0.00,,,0.11,0,Wunderground v.1.15,2013-09-17 08:26:00,
2013-09-17 18:30:00,64.0,52.8,28.71,NW,305,2.0,4.0,67,0.00,,,0.11,0,Wunderground v.1.15,2013-09-17 08:30:00,
2013-09-17 18:31:00,64.4,53.6,28.71,NW,315,3.0,-999.0,68,0.00,,,0.11,0,Wunderground v.1.15,2013-09-17 08:31:00,
2013-09-17 18:36:00,64.4,53.6,28.71,NW,315,3.0,-999.0,68,0.00,,,0.11,0,Wunderground v.1.15,2013-09-17 08:36:00,
2013-09-17 18:40:00,63.7,52.9,28.71,NW,319,3.0,3.0,68,0.00,,,0.11,0,Wunderground v.1.15,2013-09-17 08:40:00,
2013-09-17 18:41:00,64.4,53.6,28.71,NW,315,3.0,-999.0,68,0.00,,,0.11,0,Wunderground v.1.15,2013-09-17 08:41:00,
2013-09-17 18:45:00,63.5,53.1,28.71,North,350,1.0,3.0,69,0.00,,,0.11,0,Wunderground v.1.15,2013-09-17 08:45:00,
2013-09-17 18:46:00,63.4,53.4,28.72,NW,315,1.0,-999.0,70,0.00,,,0.11,0,Wunderground v.1.15,2013-09-17 08:46:00,
2013-09-17 18:50:00,63.2,52.9,28.72,North,360,1.0,3.0,69,0.00,,,0.11,0,Wunderground v.1.15,2013-09-17 08:50:00,
2013-09-17 18:51:00,63.4,53.4,28.72,NW,315,1.0,-999.0,70,0.00,,,0.11,0,Wunderground v.1.15,2013-09-17 08:51:00,
2013-09-17 18:56:00,63.4,53.4,28.72,NW,315,1.0,-999.0,70,0.00,,,0.11,0,Wunderground v.1.15,2013-09-17 08:56:00,
2013-09-17 19:00:00,62.8,52.9,28.72,North,355,1.0,1.0,70,0.00,,,0.11,0,Wunderground v.1.15,2013-09-17 09:00:00,
2013-09-17 19:01:00,63.4,53.4,28.72,NW,315,1.0,-999.0,70,0.00,,,0.11,0,Wunderground v.1.15,2013-09-17 09:01:00,
2013-09-17 19:05:00,62.6,52.7,28.71,NNW,344,1.0,1.0,70,0.00,,,0.11,0,Wunderground v.1.15,2013-09-17 09:05:00,
2013-09-17 19:06:00,63.4,53.4,28.72,NW,315,1.0,-999.0,70,0.00,,,0.11,0,Wunderground v.1.15,2013-09-17 09:06:00,
2013-09-17 19:10:00,62.4,52.5,28.72,North,350,2.0,4.0,70,0.00,,,0.11,0,Wunderground v.1.15,2013-09-17 09:10:00,
2013-09-17 19:11:00,63.4,53.4,28.72,NW,315,1.0,-999.0,70,0.00,,,0.11,0,Wunderground v.1.15,2013-09-17 09:11:00,
2013-09-17 19:15:00,62.2,52.3,28.72,NNW,340,2.0,4.0,70,0.00,,,0.11,0,Wunderground v.1.15,2013-09-17 09:15:00,
2013-09-17 19:16:00,62.5,51.8,28.72,NW,315,3.0,-999.0,68,0.00,,,0.11,0,Wunderground v.1.15,2013-09-17 09:16:00,
2013-09-17 19:21:00,62.5,51.8,28.72,NW,315,3.0,-999.0,68,0.00,,,0.11,0,Wunderground v.1.15,2013-09-17 09:21:00,
2013-09-17 19:25:00,62.6,51.9,28.72,NNE,23,4.0,4.0,68,0.00,,,0.11,0,Wunderground v.1.15,2013-09-17 09:25:00,
2013-09-17 19:26:00,62.5,51.8,28.72,NW,315,3.0,-999.0,68,0.00,,,0.11,0,Wunderground v.1.15,2013-09-17 09:26:00,
2013-09-17 19:30:00,62.6,51.9,28.72,WNW,291,4.0,4.0,68,0.00,,,0.11,0,Wunderground v.1.15,2013-09-17 09:30:00,
2013-09-17 19:31:00,62.5,51.8,28.72,NW,315,3.0,-999.0,68,0.00,,,0.11,0,Wunderground v.1.15,2013-09-17 09:31:00,
2013-09-17 19:36:00,62.5,51.8,28.72,NW,315,3.0,-999.0,68,0.00,,,0.11,0,Wunderground v.1.15,2013-09-17 09:36:00,
2013-09-17 19:40:00,62.7,51.6,28.72,NW,309,5.0,5.0,67,0.00,,,0.11,0,Wunderground v.1.15,2013-09-17 09:40:00,
2013-09-17 19:41:00,62.5,51.8,28.72,NW,315,3.0,-999.0,68,0.00,,,0.11,0,Wunderground v.1.15,2013-09-17 09:41:00,
2013-09-17 19:46:00,62.8,51.7,28.73,NW,315,6.0,-999.0,67,0.00,,,0.11,0,Wunderground v.1.15,2013-09-17 09:46:00,
2013-09-17 19:50:00,62.8,51.7,28.72,West,272,6.0,8.0,67,0.00,,,0.11,0,Wunderground v.1.15,2013-09-17 09:50:00,
2013-09-17 19:51:00,62.8,51.7,28.73,NW,315,6.0,-999.0,67,0.00,,,0.11,0,Wunderground v.1.15,2013-09-17 09:51:00,
2013-09-17 19:55:00,62.9,51.8,28.73,North,360,7.0,8.0,67,0.00,,,0.11,0,Wunderground v.1.15,2013-09-17 09:55:00,
2013-09-17 19:56:00,62.8,51.7,28.73,NW,315,6.0,-999.0,67,0.00,,,0.11,0,Wunderground v.1.15,2013-09-17 09:56:00,
2013-09-17 20:00:00,62.9,51.8,28.73,WNW,302,7.0,7.0,67,0.00,,,0.11,0,Wunderground v.1.15,2013-09-17 10:00:00,
2013-09-17 20:01:00,62.8,51.7,28.73,NW,315,6.0,-999.0,67,0.00,,,0.11,0,Wunderground v.1.15,2013-09-17 10:01:00,
2013-09-17 20:06:00,62.8,51.7,28.73,NW,315,6.0,-999.0,67,0.00,,,0.11,0,Wunderground v.1.15,2013-09-17 10:06:00,
2013-09-17 20:10:00,62.8,51.7,28.73,WNW,299,7.0,7.0,67,0.00,,,0.11,0,Wunderground v.1.15,2013-09-17 10:10:00,
2013-09-17 20:11:00,62.8,51.7,28.73,NW,315,6.0,-999.0,67,0.00,,,0.11,0,Wunderground v.1.15,2013-09-17 10:11:00,
2013-09-17 20:16:00,62.8,52.1,28.73,NW,315,6.0,-999.0,68,0.00,,,0.11,0,Wunderground v.1.15,2013-09-17 10:16:00,
2013-09-17 20:20:00,62.8,51.7,28.73,NW,319,6.0,6.0,67,0.00,,,0.11,0,Wunderground v.1.15,2013-09-17 10:20:00,
2013-09-17 20:21:00,62.8,52.1,28.73,NW,315,6.0,-999.0,68,0.00,,,0.11,0,Wunderground v.1.15,2013-09-17 10:21:00,
2013-09-17 20:26:00,62.8,52.1,28.73,NW,315,6.0,-999.0,68,0.00,,,0.11,0,Wunderground v.1.15,2013-09-17 10:26:00,
2013-09-17 20:30:00,62.8,51.7,28.73,WSW,246,6.0,11.0,67,0.00,,,0.11,0,Wunderground v.1.15,2013-09-17 10:30:00,
2013-09-17 20:31:00,62.8,52.1,28.73,NW,315,6.0,-999.0,68,0.00,,,0.11,0,Wunderground v.1.15,2013-09-17 10:31:00,
2013-09-17 20:35:00,62.6,51.9,28.73,NW,310,5.0,11.0,68,0.00,,,0.11,0,Wunderground v.1.15,2013-09-17 10:35:00,
2013-09-17 20:36:00,62.8,52.1,28.73,NW,315,6.0,-999.0,68,0.00,,,0.11,0,Wunderground v.1.15,2013-09-17 10:36:00,
2013-09-17 20:41:00,62.8,52.1,28.73,NW,315,6.0,-999.0,68,0.00,,,0.11,0,Wunderground v.1.15,2013-09-17 10:41:00,
2013-09-17 20:45:00,62.2,51.9,28.74,NW,311,5.0,10.0,69,0.00,,,0.11,0,Wunderground v.1.15,2013-09-17 10:45:00,
2013-09-17 20:46:00,62.2,52.7,28.74,NW,315,5.0,-999.0,71,0.00,,,0.11,0,Wunderground v.1.15,2013-09-17 10:46:00,
2013-09-17 20:50:00,62.1,52.2,28.74,NW,312,6.0,6.0,70,0.00,,,0.11,0,Wunderground v.1.15,2013-09-17 10:50:00,
2013-09-17 20:51:00,62.2,52.7,28.74,NW,315,5.0,-999.0,71,0.00,,,0.11,0,Wunderground v.1.15,2013-09-17 10:51:00,
2013-09-17 20:55:00,61.9,52.4,28.74,WNW,285,6.0,7.0,71,0.00,,,0.11,0,Wunderground v.1.15,2013-09-17 10:55:00,
2013-09-17 20:56:00,62.2,52.7,28.74,NW,315,5.0,-999.0,71,0.00,,,0.11,0,Wunderground v.1.15,2013-09-17 10:56:00,
2013-09-17 21:00:00,61.7,52.2,28.74,NW,325,5.0,5.0,71,0.00,,,0.11,0,Wunderground v.1.15,2013-09-17 11:00:00,
2013-09-17 21:01:00,62.2,52.7,28.74,NW,315,5.0,-999.0,71,0.00,,,0.11,0,Wunderground v.1.15,2013-09-17 11:01:00,
2013-09-17 21:05:00,61.6,52.5,28.74,NW,307,6.0,8.0,72,0.00,,,0.11,0,Wunderground v.1.15,2013-09-17 11:05:00,
2013-09-17 21:06:00,62.2,52.7,28.74,NW,315,5.0,-999.0,71,0.00,,,0.11,0,Wunderground v.1.15,2013-09-17 11:06:00,
2013-09-17 21:11:00,62.2,52.7,28.74,NW,315,5.0,-999.0,71,0.00,,,0.11,0,Wunderground v.1.15,2013-09-17 11:11:00,
2013-09-17 21:15:00,61.4,52.7,28.74,NW,308,6.0,6.0,73,0.00,,,0.11,0,Wunderground v.1.15,2013-09-17 11:15:00,
2013-09-17 21:16:00,61.3,53.3,28.74,NW,315,6.0,-999.0,75,0.00,,,0.11,0,Wunderground v.1.15,2013-09-17 11:16:00,
2013-09-17 21:20:00,61.3,52.9,28.74,NW,309,5.0,10.0,74,0.00,,,0.11,0,Wunderground v.1.15,2013-09-17 11:20:00,
2013-09-17 21:21:00,61.3,53.3,28.74,NW,315,6.0,-999.0,75,0.00,,,0.11,0,Wunderground v.1.15,2013-09-17 11:21:00,
2013-09-17 21:25:00,61.1,52.7,28.74,WNW,290,5.0,10.0,74,0.00,,,0.11,0,Wunderground v.1.15,2013-09-17 11:25:00,
2013-09-17 21:26:00,61.3,53.3,28.74,NW,315,6.0,-999.0,75,0.00,,,0.11,0,Wunderground v.1.15,2013-09-17 11:26:00,
2013-09-17 21:31:00,61.3,53.3,28.74,NW,315,6.0,-999.0,75,0.00,,,0.11,0,Wunderground v.1.15,2013-09-17 11:31:00,
2013-09-17 21:35:00,61.0,53.0,28.74,NW,311,6.0,6.0,75,0.00,,,0.11,0,Wunderground v.1.15,2013-09-17 11:35:00,
2013-09-17 21:36:00,61.3,53.3,28.74,NW,315,6.0,-999.0,75,0.00,,,0.11,0,Wunderground v.1.15,2013-09-17 11:36:00,
2013-09-17 21:40:00,60.9,52.9,28.74,NW,326,5.0,5.0,75,0.00,,,0.11,0,Wunderground v.1.15,2013-09-17 11:40:00,
2013-09-17 21:41:00,61.3,53.3,28.74,NW,315,6.0,-999.0,75,0.00,,,0.11,0,Wunderground v.1.15,2013-09-17 11:41:00,
2013-09-17 21:46:00,60.8,53.2,28.75,NW,315,5.0,-999.0,76,0.00,,,0.11,0,Wunderground v.1.15,2013-09-17 11:46:00,
2013-09-17 21:50:00,60.7,53.1,28.75,NNW,346,5.0,6.0,76,0.00,,,0.11,0,Wunderground v.1.15,2013-09-17 11:50:00,
2013-09-17 21:51:00,60.8,53.2,28.75,NW,315,5.0,-999.0,76,0.00,,,0.11,0,Wunderground v.1.15,2013-09-17 11:51:00,
2013-09-17 21:55:00,60.7,53.1,28.75,WNW,298,5.0,6.0,76,0.00,,,0.11,0,Wunderground v.1.15,2013-09-17 11:55:00,
2013-09-17 21:56:00,60.8,53.2,28.75,NW,315,5.0,-999.0,76,0.00,,,0.11,0,Wunderground v.1.15,2013-09-17 11:56:00,
2013-09-17 22:00:00,60.6,53.0,28.75,NE,52,5.0,5.0,76,0.00,,,0.11,0,Wunderground v.1.15,2013-09-17 12:00:00,
2013-09-17 22:01:00,60.8,53.2,28.75,NW,315,5.0,-999.0,76,0.00,,,0.11,0,Wunderground v.1.15,2013-09-17 12:01:00,
2013-09-17 22:05:00,60.5,52.9,28.75,NNW,332,5.0,5.0,76,0.00,,,0.11,0,Wunderground v.1.15,2013-09-17 12:05:00,
2013-09-17 22:06:00,60.8,53.2,28.75,NW,315,5.0,-999.0,76,0.00,,,0.11,0,Wunderground v.1.15,2013-09-17 12:06:00,
2013-09-17 22:11:00,60.8,53.2,28.75,NW,315,5.0,-999.0,76,0.00,,,0.11,0,Wunderground v.1.15,2013-09-17 12:11:00,
2013-09-17 22:15:00,60.5,53.3,28.75,NW,312,5.0,9.0,77,0.00,,,0.11,0,Wunderground v.1.15,2013-09-17 12:15:00,
2013-09-17 22:16:00,60.4,53.5,28.75,NW,315,5.0,-999.0,78,0.00,,,0.11,0,Wunderground v.1.15,2013-09-17 12:16:00,
2013-09-17 22:20:00,60.4,53.2,28.75,West,273,5.0,7.0,77,0.00,,,0.11,0,Wunderground v.1.15,2013-09-17 12:20:00,
2013-09-17 22:21:00,60.4,53.5,28.75,NW,315,5.0,-999.0,78,0.00,,,0.11,0,Wunderground v.1.15,2013-09-17 12:21:00,
2013-09-17 22:25:00,60.2,53.0,28.75,NW,310,4.0,8.0,77,0.00,,,0.11,0,Wunderground v.1.15,2013-09-17 12:25:00,
2013-09-17 22:26:00,60.4,53.5,28.75,NW,315,5.0,-999.0,78,0.00,,,0.11,0,Wunderground v.1.15,2013-09-17 12:26:00,
2013-09-17 22:30:00,60.1,53.2,28.75,NW,309,5.0,5.0,78,0.00,,,0.11,0,Wunderground v.1.15,2013-09-17 12:30:00,
2013-09-17 22:31:00,60.4,53.5,28.75,NW,315,5.0,-999.0,78,0.00,,,0.11,0,Wunderground v.1.15,2013-09-17 12:31:00,
2013-09-17 22:36:00,60.4,53.5,28.75,NW,315,5.0,-999.0,78,0.00,,,0.11,0,Wunderground v.1.15,2013-09-17 12:36:00,
2013-09-17 22:40:00,59.9,53.0,28.75,NNW,335,4.0,6.0,78,0.00,,,0.11,0,Wunderground v.1.15,2013-09-17 12:40:00,
2013-09-17 22:41:00,60.4,53.5,28.75,NW,315,5.0,-999.0,78,0.00,,,0.11,0,Wunderground v.1.15,2013-09-17 12:41:00,
2013-09-17 22:46:00,60.0,53.5,28.75,NW,315,5.0,-999.0,79,0.00,,,0.11,0,Wunderground v.1.15,2013-09-17 12:46:00,
2013-09-17 22:50:00,59.9,53.4,28.76,NNW,338,6.0,6.0,79,0.00,,,0.11,0,Wunderground v.1.15,2013-09-17 12:50:00,
2013-09-17 22:51:00,60.0,53.5,28.75,NW,315,5.0,-999.0,79,0.00,,,0.11,0,Wunderground v.1.15,2013-09-17 12:51:00,
2013-09-17 22:55:00,60.0,53.5,28.75,NNW,331,6.0,6.0,79,0.00,,,0.11,0,Wunderground v.1.15,2013-09-17 12:55:00,
2013-09-17 22:56:00,60.0,53.5,28.75,NW,315,5.0,-999.0,79,0.00,,,0.11,0,Wunderground v.1.15,2013-09-17 12:56:00,
2013-09-17 23:00:00,60.0,53.5,28.75,NW,322,5.0,5.0,79,0.00,,,0.11,0,Wunderground v.1.15,2013-09-17 13:00:00,
2013-09-17 23:01:00,60.0,53.5,28.75,NW,315,5.0,-999.0,79,0.00,,,0.11,0,Wunderground v.1.15,2013-09-17 13:01:00,
2013-09-17 23:05:00,59.9,53.4,28.76,NW,313,5.0,11.0,79,0.00,,,0.11,0,Wunderground v.1.15,2013-09-17 13:05:00,
2013-09-17 23:06:00,60.0,53.5,28.75,NW,315,5.0,-999.0,79,0.00,,,0.11,0,Wunderground v.1.15,2013-09-17 13:06:00,
2013-09-17 23:10:00,59.8,53.6,28.75,NW,320,6.0,9.0,80,0.00,,,0.11,0,Wunderground v.1.15,2013-09-17 13:10:00,
2013-09-17 23:11:00,60.0,53.5,28.75,NW,315,5.0,-999.0,79,0.00,,,0.11,0,Wunderground v.1.15,2013-09-17 13:11:00,
2013-09-17 23:16:00,59.8,53.6,28.76,NW,315,6.0,-999.0,80,0.00,,,0.11,0,Wunderground v.1.15,2013-09-17 13:16:00,
2013-09-17 23:20:00,59.7,53.5,28.75,NW,309,7.0,7.0,80,0.00,,,0.11,0,Wunderground v.1.15,2013-09-17 13:20:00,
2013-09-17 23:21:00,59.8,53.6,28.76,NW,315,6.0,-999.0,80,0.00,,,0.11,0,Wunderground v.1.15,2013-09-17 13:21:00,
2013-09-17 23:25:00,59.7,53.5,28.75,NNW,342,7.0,7.0,80,0.00,,,0.11,0,Wunderground v.1.15,2013-09-17 13:25:00,
2013-09-17 23:26:00,59.8,53.6,28.76,NW,315,6.0,-999.0,80,0.00,,,0.11,0,Wunderground v.1.15,2013-09-17 13:26:00,
2013-09-17 23:30:00,59.8,53.6,28.76,NW,311,7.0,8.0,80,0.00,,,0.11,0,Wunderground v.1.15,2013-09-17 13:30:00,
2013-09-17 23:31:00,59.8,53.6,28.76,NW,315,6.0,-999.0,80,0.00,,,0.11,0,Wunderground v.1.15,2013-09-17 13:31:00,
2013-09-17 23:36:00,59.8,53.6,28.76,NW,315,6.0,-999.0,80,0.00,,,0.11,0,Wunderground v.1.15,2013-09-17 13:36:00,
2013-09-17 23:40:00,59.7,53.5,28.76,North,355,6.0,6.0,80,0.00,,,0.11,0,Wunderground v.1.15,2013-09-17 13:40:00,
2013-09-17 23:41:00,59.8,53.6,28.76,NW,315,6.0,-999.0,80,0.00,,,0.11,0,Wunderground v.1.15,2013-09-17 13:41:00,
2013-09-17 23:45:00,59.7,53.5,28.76,West,281,5.0,6.0,80,0.00,,,0.11,0,Wunderground v.1.15,2013-09-17 13:45:00,
2013-09-17 23:46:00,59.7,53.9,28.75,NW,315,5.0,-999.0,81,0.00,,,0.11,0,Wunderground v.1.15,2013-09-17 13:46:00,
2013-09-17 23:51:00,59.7,53.9,28.75,NW,315,5.0,-999.0,81,0.00,,,0.11,0,Wunderground v.1.15,2013-09-17 13:51:00,
2013-09-17 23:55:00,59.7,53.9,28.75,WNW,298,5.0,5.0,81,0.00,,,0.11,0,Wunderground v.1.15,2013-09-17 13:55:00,
2013-09-17 23:56:00,59.7,53.9,28.75,NW,315,5.0,-999.0,81,0.00,,,0.11,0,Wunderground v.1.15,2013-09-17 13:56:00,